Terminal Aerodrome Forecast
Issued by NWS Lubbock, TX

Home | Current Version | Previous Version | Text Only | Print | Product List | Glossary On
Versions: 1 2 3 4 5 6 7 8 9 10 11 12 13 14 15
000
FTUS44 KLUB 290555 AAA
TAFLBB
TAF AMD
KLBB 290555Z 2906/3006 10011KT P6SM BKN090 OVC110
      TEMPO 2906/2907 -SHRA=

USA.gov is the U.S. government's official web portal to all federal, state and local government web resources and services.